Portada
METAR-TAF:

METAR-TAF

Aeropuertos :

Aeropuerto Internacional de Ahvaz

Ahvaz, Irán

latitud: 31-20N, longitud: 048-40E, altitud: 20 m

Observación

El informe se hizo hace 19 minutos, a las 12:00 UTC
Viento 8 kt del oeste-noroeste
Temperatura 22°C
Humedad 46%
Presión 1017 hPa
Visibilidad 10 km o más
Escasas nubes a una altura de 4000 ft

METAR: OIAW 271200Z 30008KT 9999 FEW040 22/10 Q1017

Hora: 15:49 (12:19 UTC)

Pronóstico

El informe se hizo hace 59 minutos, a las 11:20 UTC
Pronóstico válido del 27 a las 12 UTC al 28 a las 18 UTC
Viento 8 kt del noroeste
Visibilidad: 8000 m
Evolucionando progresivamente
del 27 a las 23 UTC al 27 a las 24 UTC
Visibilidad: 4000 m
neblina
Temporalmente
del 28 a las 01 UTC al 28 a las 03 UTC
Visibilidad: 1200 m
neblina
Evolucionando progresivamente
del 28 a las 04 UTC al 28 a las 06 UTC
Visibilidad: 7000 m

TAF: OIAW 271120Z 2712/2818 32008KT 8000 NSC BECMG 2723/2724 4000 BR TEMPO 2801/2803 1200 BR BECMG 2804/2806 7000 NSC

Observaciones y pronósticos meteorológicos de más de 4000 aeropuertos (mensajes METAR y TAF).

Los puntos amarillos y rojos representan las estaciones disponibles.

Ponga el ratón en el punto deseado para ver el nombre de la estación.

Haga clic para ver las observaciones y los pronósticos meteorológicos.

Para cambiar el mapa : haga clic en los botones verdes con una cruz de color negro para hacer un zoom, en el botón verde con un guión para alejar o en las flechas verdes para mapas adyacentes.


METAR-TAF: